createdAt,value
2023-03-22T04:13:01.206Z,100080.87
2023-03-22T04:16:04.198Z,100080.87
2023-03-22T04:19:06.822Z,100079.91
2023-03-22T04:22:14.553Z,100083.22
2023-03-22T04:25:18.240Z,100075.53
2023-03-22T04:28:21.758Z,100086.09
2023-03-22T04:31:25.188Z,100099.16
2023-03-22T04:34:28.433Z,100097.75
2023-03-22T04:37:34.117Z,100096.47
2023-03-22T04:40:38.837Z,100086.69
2023-03-22T04:43:42.035Z,100097.78
2023-03-22T04:46:44.721Z,100097.63
2023-03-22T04:49:47.048Z,100102.94
2023-03-22T04:52:51.605Z,100096.84
2023-03-22T04:55:58.249Z,100095.94
2023-03-22T04:59:01.478Z,100101.03
2023-03-22T05:02:03.745Z,100108.63
2023-03-22T05:05:07.315Z,100109.31
2023-03-22T05:08:09.604Z,100114.28
2023-03-22T05:11:14.953Z,100125.28
2023-03-22T05:14:18.436Z,100125.25
2023-03-22T05:17:21.574Z,100128.69
2023-03-22T05:20:24.934Z,100126.22
2023-03-22T05:23:27.997Z,100117.91
2023-03-22T05:26:31.105Z,100111.37
2023-03-22T05:29:36.935Z,100114.87
2023-03-22T05:32:43.867Z,100116.41
2023-03-22T05:35:46.504Z,100123.16
2023-03-22T05:38:49.119Z,100116.75
2023-03-22T05:41:52.515Z,100120.19
2023-03-22T05:44:55.278Z,100114.09
2023-03-22T05:47:58.893Z,100109.72
2023-03-22T05:51:03.800Z,100109.91
2023-03-22T05:54:08.488Z,100113.84
2023-03-22T05:57:11.710Z,100117.09
2023-03-22T06:00:16.204Z,100122.34
2023-03-22T06:03:22.957Z,100122.06
2023-03-22T06:06:28.016Z,100117.25
2023-03-22T06:09:30.942Z,100126.53
2023-03-22T06:12:33.429Z,100123.69
2023-03-22T06:15:36.671Z,100133.03
2023-03-22T06:18:38.888Z,100134.63
2023-03-22T06:21:42.405Z,100124.75
2023-03-22T06:24:49.281Z,100126.72
2023-03-22T06:27:52.302Z,100121.31
2023-03-22T06:30:56.372Z,100143.44
2023-03-22T06:33:59.643Z,100140.25
2023-03-22T06:37:02.258Z,100150.28
2023-03-22T06:40:07.542Z,100153.50
2023-03-22T06:43:09.772Z,100157.41
2023-03-22T06:46:13.979Z,100147.81
2023-03-22T06:49:19.307Z,100143.59
2023-03-22T06:52:21.865Z,100153.56
2023-03-22T06:55:24.368Z,100150.38
2023-03-22T06:58:27.129Z,100148.41
2023-03-22T07:01:29.557Z,100155.19
2023-03-22T07:04:33.098Z,100163.16
2023-03-22T07:07:35.437Z,100164.41
2023-03-22T07:10:39.010Z,100168.78
2023-03-22T07:13:41.523Z,100168.50
2023-03-22T07:16:44.542Z,100175.94
2023-03-22T07:19:46.664Z,100177.38
2023-03-22T07:22:51.309Z,100168.38
2023-03-22T07:25:56.046Z,100179.25
2023-03-22T07:28:59.069Z,100184.62
2023-03-22T07:32:01.933Z,100175.22
2023-03-22T07:35:05.855Z,100170.09
2023-03-22T07:38:08.340Z,100171.84
2023-03-22T07:41:11.587Z,100168.44
2023-03-22T07:44:18.258Z,100169.13
2023-03-22T07:47:37.737Z,100175.03
2023-03-22T07:50:44.001Z,100172.97
2023-03-22T07:53:46.559Z,100173.97
2023-03-22T07:56:49.006Z,100178.84
2023-03-22T07:59:51.441Z,100174.44
2023-03-22T08:02:54.028Z,100170.91
2023-03-22T08:06:03.781Z,100166.47
2023-03-22T08:09:08.384Z,100169.69
2023-03-22T08:12:11.021Z,100173.34
2023-03-22T08:15:14.180Z,100165.75
2023-03-22T08:18:16.918Z,100157.56
2023-03-22T08:21:19.489Z,100157.78
2023-03-22T08:24:27.030Z,100167.94
2023-03-22T08:27:31.340Z,100169.53
2023-03-22T08:30:34.377Z,100174.56
2023-03-22T08:33:36.745Z,100168.34
2023-03-22T08:36:39.447Z,100173.50
2023-03-22T08:39:44.001Z,100174.81
2023-03-22T08:42:50.049Z,100175.75
2023-03-22T08:45:52.321Z,100177.97
2023-03-22T08:48:55.005Z,100175.44
2023-03-22T08:51:59.218Z,100175.59
2023-03-22T08:55:04.130Z,100172.16
2023-03-22T08:58:13.648Z,100173.97
2023-03-22T09:01:17.853Z,100176.50
2023-03-22T09:04:20.464Z,100170.59
2023-03-22T09:07:24.193Z,100165.41
2023-03-22T09:10:26.841Z,100169.78
2023-03-22T09:13:31.034Z,100174.38
2023-03-22T09:16:33.587Z,100170.06
2023-03-22T09:19:36.977Z,100173.13
2023-03-22T09:22:39.605Z,100178.12
2023-03-22T09:25:45.554Z,100172.97
2023-03-22T09:28:47.773Z,100173.28
2023-03-22T09:31:50.323Z,100163.56
2023-03-22T09:34:52.669Z,100167.09
2023-03-22T09:37:58.128Z,100168.97
2023-03-22T09:41:05.975Z,100163.16
2023-03-22T09:44:16.031Z,100161.16
2023-03-22T09:47:45.268Z,100161.94
2023-03-22T09:50:53.926Z,100158.25
2023-03-22T09:53:56.081Z,100158.56
2023-03-22T09:57:08.492Z,100162.78
2023-03-22T10:00:38.080Z,100158.16
2023-03-22T10:03:46.573Z,100164.25
2023-03-22T10:06:54.861Z,100159.78
2023-03-22T10:09:57.252Z,100162.34
2023-03-22T10:13:24.968Z,100155.66
2023-03-22T10:16:33.172Z,100158.03
2023-03-22T10:19:56.350Z,100158.34
2023-03-22T10:23:02.950Z,100162.16
2023-03-22T10:26:07.553Z,100156.63
2023-03-22T10:29:19.093Z,100150.88
2023-03-22T10:32:56.748Z,100148.50
2023-03-22T10:36:01.551Z,100154.19
2023-03-22T10:39:33.450Z,100151.84
2023-03-22T10:42:38.789Z,100156.53
2023-03-22T10:45:42.646Z,100156.75
2023-03-22T10:48:48.354Z,100151.41
2023-03-22T10:51:54.568Z,100152.53
2023-03-22T10:55:01.221Z,100152.69
2023-03-22T10:58:20.493Z,100153.91
2023-03-22T11:01:36.873Z,100147.62
2023-03-22T11:04:39.170Z,100146.53
2023-03-22T11:07:45.271Z,100146.63
2023-03-22T11:10:51.152Z,100141.16
2023-03-22T11:14:06.833Z,100139.63
2023-03-22T11:17:15.293Z,100130.78
2023-03-22T11:20:19.400Z,100129.19
2023-03-22T11:23:22.519Z,100118.59
2023-03-22T11:26:35.698Z,100118.97
2023-03-22T11:29:47.898Z,100114.72
2023-03-22T11:33:01.780Z,100110.88
2023-03-22T11:36:18.264Z,100115.19
2023-03-22T11:39:27.052Z,100107.69
2023-03-22T11:42:29.524Z,100102.81
2023-03-22T11:45:36.185Z,100104.91
2023-03-22T11:48:42.212Z,100097.53
2023-03-22T11:51:45.630Z,100088.56
2023-03-22T11:54:49.022Z,100085.63
2023-03-22T11:57:56.927Z,100090.63
2023-03-22T12:01:02.388Z,100086.28
2023-03-22T12:04:08.300Z,100081.03
2023-03-22T12:07:19.405Z,100074.69
2023-03-22T12:10:40.928Z,100089.38
2023-03-22T12:13:57.589Z,100079.53
2023-03-22T12:17:07.923Z,100086.09
2023-03-22T12:20:19.885Z,100077.69
2023-03-22T12:23:25.746Z,100078.84
2023-03-22T12:26:29.589Z,100075.63
2023-03-22T12:29:33.381Z,100076.16
2023-03-22T12:32:42.169Z,100072.50
2023-03-22T12:35:47.079Z,100071.94
2023-03-22T12:39:01.397Z,100069.84
2023-03-22T12:42:13.492Z,100071.50
2023-03-22T12:45:21.931Z,100069.53
2023-03-22T12:48:38.571Z,100081.00
2023-03-22T12:51:43.231Z,100069.81
2023-03-22T12:54:49.409Z,100065.47
2023-03-22T12:57:54.671Z,100065.19
2023-03-22T13:01:10.853Z,100059.47
2023-03-22T13:04:28.078Z,100053.84
2023-03-22T13:07:38.524Z,100056.88
2023-03-22T13:10:48.972Z,100043.81
2023-03-22T13:13:51.534Z,100042.69
2023-03-22T13:16:59.773Z,100039.00
2023-03-22T13:20:11.543Z,100032.63
2023-03-22T13:23:26.567Z,100034.31
2023-03-22T13:26:40.187Z,100032.88
2023-03-22T13:29:43.359Z,100021.22
2023-03-22T13:32:56.136Z,100022.94
2023-03-22T13:36:07.230Z,100015.19
2023-03-22T13:39:12.491Z,100017.22
2023-03-22T13:42:17.724Z,100013.44
2023-03-22T13:45:33.581Z,100015.50
2023-03-22T13:48:54.670Z,100021.00
2023-03-22T13:52:00.941Z,100016.84
2023-03-22T13:55:03.687Z,100011.69
2023-03-22T13:58:09.996Z,100007.06
2023-03-22T14:01:24.215Z,100005.47
2023-03-22T14:04:37.236Z,99998.75
2023-03-22T14:07:45.246Z,99995.03
2023-03-22T14:10:56.264Z,100000.16
2023-03-22T14:14:04.841Z,99993.84
2023-03-22T14:17:27.097Z,99996.50
2023-03-22T14:20:34.326Z,99993.63
